sensor_id;sensor_type;location;lat;lon;timestamp;P1;durP1;ratioP1;P2;durP2;ratioP2
36233;SDS011;43467;50.890;5.982;2024-03-02T00:00:20;3.88;;;1.40;;
36233;SDS011;43467;50.890;5.982;2024-03-02T00:02:47;3.63;;;1.10;;
36233;SDS011;43467;50.890;5.982;2024-03-02T00:05:20;1.98;;;1.25;;
36233;SDS011;43467;50.890;5.982;2024-03-02T00:07:53;3.28;;;1.13;;
36233;SDS011;43467;50.890;5.982;2024-03-02T00:10:35;2.65;;;1.40;;
36233;SDS011;43467;50.890;5.982;2024-03-02T00:13:04;2.63;;;1.30;;
36233;SDS011;43467;50.890;5.982;2024-03-02T00:18:12;2.53;;;1.70;;
36233;SDS011;43467;50.890;5.982;2024-03-02T00:20:39;4.20;;;1.52;;
36233;SDS011;43467;50.890;5.982;2024-03-02T00:23:06;4.72;;;1.40;;
36233;SDS011;43467;50.890;5.982;2024-03-02T00:28:17;2.17;;;0.90;;
36233;SDS011;43467;50.890;5.982;2024-03-02T00:30:57;7.18;;;1.55;;
36233;SDS011;43467;50.890;5.982;2024-03-02T00:33:44;3.50;;;1.45;;
36233;SDS011;43467;50.890;5.982;2024-03-02T00:36:12;3.40;;;1.48;;
36233;SDS011;43467;50.890;5.982;2024-03-02T00:38:46;2.35;;;1.38;;
36233;SDS011;43467;50.890;5.982;2024-03-02T00:41:15;4.45;;;1.60;;
36233;SDS011;43467;50.890;5.982;2024-03-02T00:46:29;5.13;;;1.60;;
36233;SDS011;43467;50.890;5.982;2024-03-02T00:48:58;2.90;;;1.45;;
36233;SDS011;43467;50.890;5.982;2024-03-02T00:51:26;4.57;;;1.55;;
36233;SDS011;43467;50.890;5.982;2024-03-02T00:53:54;3.75;;;1.30;;
36233;SDS011;43467;50.890;5.982;2024-03-02T00:56:21;3.08;;;1.25;;
36233;SDS011;43467;50.890;5.982;2024-03-02T00:58:47;4.75;;;1.50;;
36233;SDS011;43467;50.890;5.982;2024-03-02T01:01:13;3.67;;;1.92;;
36233;SDS011;43467;50.890;5.982;2024-03-02T01:03:39;2.83;;;1.50;;
36233;SDS011;43467;50.890;5.982;2024-03-02T01:06:04;6.13;;;1.33;;
36233;SDS011;43467;50.890;5.982;2024-03-02T01:08:30;5.03;;;1.73;;
36233;SDS011;43467;50.890;5.982;2024-03-02T01:10:55;4.22;;;1.75;;
36233;SDS011;43467;50.890;5.982;2024-03-02T01:13:24;5.70;;;1.70;;
36233;SDS011;43467;50.890;5.982;2024-03-02T01:15:50;5.68;;;1.75;;
36233;SDS011;43467;50.890;5.982;2024-03-02T01:18:15;5.15;;;1.60;;
36233;SDS011;43467;50.890;5.982;2024-03-02T01:20:41;4.45;;;1.58;;
36233;SDS011;43467;50.890;5.982;2024-03-02T01:23:06;3.38;;;1.30;;
36233;SDS011;43467;50.890;5.982;2024-03-02T01:25:32;2.25;;;1.48;;
36233;SDS011;43467;50.890;5.982;2024-03-02T01:27:57;2.38;;;1.02;;
36233;SDS011;43467;50.890;5.982;2024-03-02T01:30:22;1.88;;;0.90;;
36233;SDS011;43467;50.890;5.982;2024-03-02T01:32:48;0.95;;;0.60;;
36233;SDS011;43467;50.890;5.982;2024-03-02T01:35:13;1.15;;;0.70;;
36233;SDS011;43467;50.890;5.982;2024-03-02T01:37:40;1.67;;;0.63;;
36233;SDS011;43467;50.890;5.982;2024-03-02T01:40:06;3.45;;;0.80;;
36233;SDS011;43467;50.890;5.982;2024-03-02T01:42:35;0.90;;;0.50;;
36233;SDS011;43467;50.890;5.982;2024-03-02T01:45:01;0.77;;;0.65;;
36233;SDS011;43467;50.890;5.982;2024-03-02T01:47:27;1.17;;;0.60;;
36233;SDS011;43467;50.890;5.982;2024-03-02T01:49:52;0.50;;;0.50;;
36233;SDS011;43467;50.890;5.982;2024-03-02T01:52:18;1.05;;;0.73;;
36233;SDS011;43467;50.890;5.982;2024-03-02T01:54:43;1.70;;;0.77;;
36233;SDS011;43467;50.890;5.982;2024-03-02T01:57:09;2.25;;;0.50;;
36233;SDS011;43467;50.890;5.982;2024-03-02T01:59:35;0.57;;;0.57;;
36233;SDS011;43467;50.890;5.982;2024-03-02T02:02:00;0.68;;;0.60;;
36233;SDS011;43467;50.890;5.982;2024-03-02T02:04:26;0.85;;;0.50;;
36233;SDS011;43467;50.890;5.982;2024-03-02T02:06:53;2.78;;;0.80;;
36233;SDS011;43467;50.890;5.982;2024-03-02T02:09:19;1.08;;;0.50;;
36233;SDS011;43467;50.890;5.982;2024-03-02T02:11:44;0.50;;;0.50;;
36233;SDS011;43467;50.890;5.982;2024-03-02T02:14:09;1.23;;;0.80;;
36233;SDS011;43467;50.890;5.982;2024-03-02T02:16:36;0.70;;;0.50;;
36233;SDS011;43467;50.890;5.982;2024-03-02T02:19:01;2.13;;;0.70;;
36233;SDS011;43467;50.890;5.982;2024-03-02T02:21:27;1.10;;;0.50;;
36233;SDS011;43467;50.890;5.982;2024-03-02T02:23:52;1.73;;;0.50;;
36233;SDS011;43467;50.890;5.982;2024-03-02T02:26:18;1.73;;;0.77;;
36233;SDS011;43467;50.890;5.982;2024-03-02T02:28:43;1.55;;;0.50;;
36233;SDS011;43467;50.890;5.982;2024-03-02T02:31:12;0.73;;;0.50;;
36233;SDS011;43467;50.890;5.982;2024-03-02T02:33:41;1.70;;;0.45;;
36233;SDS011;43467;50.890;5.982;2024-03-02T02:36:07;1.42;;;0.50;;
36233;SDS011;43467;50.890;5.982;2024-03-02T02:38:35;2.90;;;1.10;;
36233;SDS011;43467;50.890;5.982;2024-03-02T02:41:05;0.95;;;0.80;;
36233;SDS011;43467;50.890;5.982;2024-03-02T02:43:31;1.27;;;0.60;;
36233;SDS011;43467;50.890;5.982;2024-03-02T02:45:56;0.50;;;0.50;;
36233;SDS011;43467;50.890;5.982;2024-03-02T02:48:21;2.42;;;0.70;;
36233;SDS011;43467;50.890;5.982;2024-03-02T02:50:47;1.15;;;0.50;;
36233;SDS011;43467;50.890;5.982;2024-03-02T02:53:12;0.63;;;0.60;;
36233;SDS011;43467;50.890;5.982;2024-03-02T02:55:39;0.88;;;0.50;;
36233;SDS011;43467;50.890;5.982;2024-03-02T02:58:08;1.55;;;0.60;;
36233;SDS011;43467;50.890;5.982;2024-03-02T03:00:33;0.90;;;0.40;;
36233;SDS011;43467;50.890;5.982;2024-03-02T03:02:59;0.50;;;0.50;;
36233;SDS011;43467;50.890;5.982;2024-03-02T03:05:24;1.80;;;0.73;;
36233;SDS011;43467;50.890;5.982;2024-03-02T03:07:50;0.40;;;0.40;;
36233;SDS011;43467;50.890;5.982;2024-03-02T03:10:16;0.93;;;0.50;;
36233;SDS011;43467;50.890;5.982;2024-03-02T03:12:42;1.85;;;0.70;;
36233;SDS011;43467;50.890;5.982;2024-03-02T03:15:08;0.40;;;0.40;;
36233;SDS011;43467;50.890;5.982;2024-03-02T03:17:34;1.02;;;0.70;;
36233;SDS011;43467;50.890;5.982;2024-03-02T03:20:00;1.50;;;0.70;;
36233;SDS011;43467;50.890;5.982;2024-03-02T03:22:26;1.13;;;0.60;;
36233;SDS011;43467;50.890;5.982;2024-03-02T03:24:52;0.60;;;0.52;;
36233;SDS011;43467;50.890;5.982;2024-03-02T03:27:17;0.60;;;0.60;;
36233;SDS011;43467;50.890;5.982;2024-03-02T03:29:44;7.22;;;0.65;;
36233;SDS011;43467;50.890;5.982;2024-03-02T03:32:10;0.70;;;0.70;;
36233;SDS011;43467;50.890;5.982;2024-03-02T03:34:35;1.40;;;0.95;;
36233;SDS011;43467;50.890;5.982;2024-03-02T03:37:02;1.17;;;1.02;;
36233;SDS011;43467;50.890;5.982;2024-03-02T03:39:28;1.23;;;0.93;;
36233;SDS011;43467;50.890;5.982;2024-03-02T03:41:53;2.92;;;1.10;;
36233;SDS011;43467;50.890;5.982;2024-03-02T03:44:19;3.50;;;1.17;;
36233;SDS011;43467;50.890;5.982;2024-03-02T03:46:44;2.03;;;1.30;;
36233;SDS011;43467;50.890;5.982;2024-03-02T03:49:10;1.75;;;0.90;;
36233;SDS011;43467;50.890;5.982;2024-03-02T03:51:36;1.15;;;0.90;;
36233;SDS011;43467;50.890;5.982;2024-03-02T03:54:01;1.55;;;1.00;;
36233;SDS011;43467;50.890;5.982;2024-03-02T03:56:27;1.90;;;0.90;;
36233;SDS011;43467;50.890;5.982;2024-03-02T03:58:52;1.40;;;0.65;;
36233;SDS011;43467;50.890;5.982;2024-03-02T04:01:18;1.58;;;1.00;;
36233;SDS011;43467;50.890;5.982;2024-03-02T04:03:43;1.10;;;0.70;;
36233;SDS011;43467;50.890;5.982;2024-03-02T04:06:09;1.50;;;1.02;;
36233;SDS011;43467;50.890;5.982;2024-03-02T04:08:34;3.47;;;0.95;;
36233;SDS011;43467;50.890;5.982;2024-03-02T04:10:59;1.80;;;0.88;;
36233;SDS011;43467;50.890;5.982;2024-03-02T04:13:25;2.10;;;1.00;;
36233;SDS011;43467;50.890;5.982;2024-03-02T04:15:50;3.08;;;1.02;;
36233;SDS011;43467;50.890;5.982;2024-03-02T04:18:16;1.30;;;0.77;;
36233;SDS011;43467;50.890;5.982;2024-03-02T04:20:41;1.55;;;1.17;;
36233;SDS011;43467;50.890;5.982;2024-03-02T04:23:07;1.42;;;0.80;;
36233;SDS011;43467;50.890;5.982;2024-03-02T04:25:32;1.70;;;1.00;;
36233;SDS011;43467;50.890;5.982;2024-03-02T04:27:58;3.03;;;0.90;;
36233;SDS011;43467;50.890;5.982;2024-03-02T04:30:23;1.65;;;1.05;;
36233;SDS011;43467;50.890;5.982;2024-03-02T04:32:50;2.08;;;1.40;;
36233;SDS011;43467;50.890;5.982;2024-03-02T04:35:15;3.78;;;1.30;;
36233;SDS011;43467;50.890;5.982;2024-03-02T04:37:41;3.70;;;1.33;;
36233;SDS011;43467;50.890;5.982;2024-03-02T04:40:06;1.55;;;0.98;;
36233;SDS011;43467;50.890;5.982;2024-03-02T04:42:35;2.45;;;1.02;;
36233;SDS011;43467;50.890;5.982;2024-03-02T04:45:01;4.63;;;1.45;;
36233;SDS011;43467;50.890;5.982;2024-03-02T04:47:27;3.53;;;1.00;;
36233;SDS011;43467;50.890;5.982;2024-03-02T04:49:53;4.57;;;1.10;;
36233;SDS011;43467;50.890;5.982;2024-03-02T04:52:18;2.50;;;1.05;;
36233;SDS011;43467;50.890;5.982;2024-03-02T04:54:44;0.98;;;0.65;;
36233;SDS011;43467;50.890;5.982;2024-03-02T04:57:28;1.00;;;0.60;;
36233;SDS011;43467;50.890;5.982;2024-03-02T04:59:53;1.38;;;0.70;;
36233;SDS011;43467;50.890;5.982;2024-03-02T05:02:18;2.05;;;0.60;;
36233;SDS011;43467;50.890;5.982;2024-03-02T05:04:44;1.25;;;0.73;;
36233;SDS011;43467;50.890;5.982;2024-03-02T05:07:10;1.48;;;0.50;;
36233;SDS011;43467;50.890;5.982;2024-03-02T05:09:35;0.60;;;0.50;;
36233;SDS011;43467;50.890;5.982;2024-03-02T05:14:30;2.05;;;0.85;;
36233;SDS011;43467;50.890;5.982;2024-03-02T05:16:55;1.08;;;0.63;;
36233;SDS011;43467;50.890;5.982;2024-03-02T05:19:20;2.33;;;0.70;;
36233;SDS011;43467;50.890;5.982;2024-03-02T05:21:46;0.73;;;0.50;;
36233;SDS011;43467;50.890;5.982;2024-03-02T05:24:11;1.20;;;0.65;;
36233;SDS011;43467;50.890;5.982;2024-03-02T05:26:37;2.35;;;0.57;;
36233;SDS011;43467;50.890;5.982;2024-03-02T05:29:02;0.43;;;0.40;;
36233;SDS011;43467;50.890;5.982;2024-03-02T05:31:28;2.80;;;0.57;;
36233;SDS011;43467;50.890;5.982;2024-03-02T05:33:53;4.70;;;0.80;;
36233;SDS011;43467;50.890;5.982;2024-03-02T05:36:18;1.27;;;0.60;;
36233;SDS011;43467;50.890;5.982;2024-03-02T05:38:45;1.05;;;0.50;;
36233;SDS011;43467;50.890;5.982;2024-03-02T05:41:11;0.90;;;0.50;;
36233;SDS011;43467;50.890;5.982;2024-03-02T05:43:37;0.82;;;0.50;;
36233;SDS011;43467;50.890;5.982;2024-03-02T05:46:02;3.05;;;0.60;;
36233;SDS011;43467;50.890;5.982;2024-03-02T05:48:27;2.60;;;0.50;;
36233;SDS011;43467;50.890;5.982;2024-03-02T05:50:53;2.83;;;0.50;;
36233;SDS011;43467;50.890;5.982;2024-03-02T05:53:18;3.45;;;0.80;;
36233;SDS011;43467;50.890;5.982;2024-03-02T05:55:44;2.17;;;0.75;;
36233;SDS011;43467;50.890;5.982;2024-03-02T05:58:10;1.02;;;0.60;;
36233;SDS011;43467;50.890;5.982;2024-03-02T06:00:54;1.08;;;0.63;;
36233;SDS011;43467;50.890;5.982;2024-03-02T06:03:20;1.55;;;0.90;;
36233;SDS011;43467;50.890;5.982;2024-03-02T06:05:45;2.85;;;0.80;;
36233;SDS011;43467;50.890;5.982;2024-03-02T06:08:10;0.85;;;0.60;;
36233;SDS011;43467;50.890;5.982;2024-03-02T06:10:36;2.00;;;0.77;;
36233;SDS011;43467;50.890;5.982;2024-03-02T06:13:01;1.58;;;1.00;;
36233;SDS011;43467;50.890;5.982;2024-03-02T06:15:26;1.20;;;0.80;;
36233;SDS011;43467;50.890;5.982;2024-03-02T06:17:52;1.80;;;0.80;;
36233;SDS011;43467;50.890;5.982;2024-03-02T06:20:17;2.08;;;1.15;;
36233;SDS011;43467;50.890;5.982;2024-03-02T06:22:43;3.63;;;1.17;;
36233;SDS011;43467;50.890;5.982;2024-03-02T06:25:08;1.50;;;0.90;;
36233;SDS011;43467;50.890;5.982;2024-03-02T06:27:33;3.58;;;1.10;;
36233;SDS011;43467;50.890;5.982;2024-03-02T06:29:59;1.15;;;0.70;;
36233;SDS011;43467;50.890;5.982;2024-03-02T06:32:24;1.45;;;0.88;;
36233;SDS011;43467;50.890;5.982;2024-03-02T06:34:50;2.58;;;0.80;;
36233;SDS011;43467;50.890;5.982;2024-03-02T06:37:15;2.78;;;0.68;;
36233;SDS011;43467;50.890;5.982;2024-03-02T06:39:41;2.05;;;0.93;;
36233;SDS011;43467;50.890;5.982;2024-03-02T06:42:07;2.95;;;0.98;;
36233;SDS011;43467;50.890;5.982;2024-03-02T06:44:32;1.45;;;0.70;;
36233;SDS011;43467;50.890;5.982;2024-03-02T06:46:59;1.55;;;0.60;;
36233;SDS011;43467;50.890;5.982;2024-03-02T06:49:24;1.30;;;0.70;;
36233;SDS011;43467;50.890;5.982;2024-03-02T06:51:50;1.08;;;0.63;;
36233;SDS011;43467;50.890;5.982;2024-03-02T06:54:15;3.47;;;0.95;;
36233;SDS011;43467;50.890;5.982;2024-03-02T06:56:40;2.03;;;0.80;;
36233;SDS011;43467;50.890;5.982;2024-03-02T06:59:06;1.73;;;0.80;;
36233;SDS011;43467;50.890;5.982;2024-03-02T07:01:32;1.40;;;0.70;;
36233;SDS011;43467;50.890;5.982;2024-03-02T07:03:57;2.13;;;0.80;;
36233;SDS011;43467;50.890;5.982;2024-03-02T07:06:23;1.73;;;0.82;;
36233;SDS011;43467;50.890;5.982;2024-03-02T07:08:48;1.27;;;0.85;;
36233;SDS011;43467;50.890;5.982;2024-03-02T07:11:13;1.33;;;0.82;;
36233;SDS011;43467;50.890;5.982;2024-03-02T07:13:39;3.25;;;0.90;;
36233;SDS011;43467;50.890;5.982;2024-03-02T07:16:04;2.88;;;1.13;;
36233;SDS011;43467;50.890;5.982;2024-03-02T07:18:35;1.55;;;1.08;;
36233;SDS011;43467;50.890;5.982;2024-03-02T07:21:06;2.83;;;1.15;;
36233;SDS011;43467;50.890;5.982;2024-03-02T07:23:32;6.75;;;1.67;;
36233;SDS011;43467;50.890;5.982;2024-03-02T07:25:57;1.77;;;0.90;;
36233;SDS011;43467;50.890;5.982;2024-03-02T07:28:25;1.30;;;0.77;;
36233;SDS011;43467;50.890;5.982;2024-03-02T07:31:00;1.65;;;1.00;;
36233;SDS011;43467;50.890;5.982;2024-03-02T07:33:29;1.88;;;0.90;;
36233;SDS011;43467;50.890;5.982;2024-03-02T07:35:55;7.45;;;1.38;;
36233;SDS011;43467;50.890;5.982;2024-03-02T07:38:21;1.33;;;1.00;;
36233;SDS011;43467;50.890;5.982;2024-03-02T07:40:47;2.92;;;1.15;;
36233;SDS011;43467;50.890;5.982;2024-03-02T07:43:15;3.38;;;1.25;;
36233;SDS011;43467;50.890;5.982;2024-03-02T07:45:44;3.75;;;1.08;;
36233;SDS011;43467;50.890;5.982;2024-03-02T07:48:10;2.35;;;0.90;;
36233;SDS011;43467;50.890;5.982;2024-03-02T07:50:36;1.63;;;1.00;;
36233;SDS011;43467;50.890;5.982;2024-03-02T07:53:02;1.23;;;0.90;;
36233;SDS011;43467;50.890;5.982;2024-03-02T07:55:28;1.65;;;1.00;;
36233;SDS011;43467;50.890;5.982;2024-03-02T07:57:54;2.47;;;0.90;;
36233;SDS011;43467;50.890;5.982;2024-03-02T08:00:20;1.15;;;0.98;;
36233;SDS011;43467;50.890;5.982;2024-03-02T08:02:45;2.03;;;1.00;;
36233;SDS011;43467;50.890;5.982;2024-03-02T08:05:11;3.05;;;1.23;;
36233;SDS011;43467;50.890;5.982;2024-03-02T08:07:37;4.40;;;1.08;;
36233;SDS011;43467;50.890;5.982;2024-03-02T08:10:02;4.00;;;1.10;;
36233;SDS011;43467;50.890;5.982;2024-03-02T08:12:28;3.22;;;1.20;;
36233;SDS011;43467;50.890;5.982;2024-03-02T08:14:53;3.30;;;1.10;;
36233;SDS011;43467;50.890;5.982;2024-03-02T08:17:19;3.65;;;1.50;;
36233;SDS011;43467;50.890;5.982;2024-03-02T08:19:44;7.25;;;1.65;;
36233;SDS011;43467;50.890;5.982;2024-03-02T08:22:09;2.80;;;1.08;;
36233;SDS011;43467;50.890;5.982;2024-03-02T08:24:35;5.30;;;1.20;;
36233;SDS011;43467;50.890;5.982;2024-03-02T08:27:01;1.55;;;0.93;;
36233;SDS011;43467;50.890;5.982;2024-03-02T08:29:27;3.55;;;1.15;;
36233;SDS011;43467;50.890;5.982;2024-03-02T08:31:53;2.65;;;1.08;;
36233;SDS011;43467;50.890;5.982;2024-03-02T08:34:18;3.83;;;1.00;;
36233;SDS011;43467;50.890;5.982;2024-03-02T08:36:46;4.22;;;1.75;;
36233;SDS011;43467;50.890;5.982;2024-03-02T08:39:11;4.35;;;1.08;;
36233;SDS011;43467;50.890;5.982;2024-03-02T08:41:49;3.47;;;1.00;;
36233;SDS011;43467;50.890;5.982;2024-03-02T08:44:14;1.35;;;0.98;;
36233;SDS011;43467;50.890;5.982;2024-03-02T08:49:16;3.58;;;1.38;;
36233;SDS011;43467;50.890;5.982;2024-03-02T08:51:41;3.83;;;1.30;;
36233;SDS011;43467;50.890;5.982;2024-03-02T08:54:07;4.15;;;1.40;;
36233;SDS011;43467;50.890;5.982;2024-03-02T08:56:33;7.97;;;1.63;;
36233;SDS011;43467;50.890;5.982;2024-03-02T08:58:58;3.95;;;1.20;;
36233;SDS011;43467;50.890;5.982;2024-03-02T09:01:24;6.70;;;1.42;;
36233;SDS011;43467;50.890;5.982;2024-03-02T09:03:49;8.40;;;1.50;;
36233;SDS011;43467;50.890;5.982;2024-03-02T09:06:15;5.10;;;1.73;;
36233;SDS011;43467;50.890;5.982;2024-03-02T09:08:46;4.75;;;1.60;;
36233;SDS011;43467;50.890;5.982;2024-03-02T09:11:12;2.95;;;1.75;;
36233;SDS011;43467;50.890;5.982;2024-03-02T09:13:38;5.75;;;1.98;;
36233;SDS011;43467;50.890;5.982;2024-03-02T09:16:03;3.92;;;1.33;;
36233;SDS011;43467;50.890;5.982;2024-03-02T09:18:30;5.93;;;1.38;;
36233;SDS011;43467;50.890;5.982;2024-03-02T09:20:55;3.78;;;1.92;;
36233;SDS011;43467;50.890;5.982;2024-03-02T09:23:21;6.60;;;1.98;;
36233;SDS011;43467;50.890;5.982;2024-03-02T09:25:46;3.45;;;1.10;;
36233;SDS011;43467;50.890;5.982;2024-03-02T09:28:12;2.10;;;1.30;;
36233;SDS011;43467;50.890;5.982;2024-03-02T09:30:37;2.35;;;1.42;;
36233;SDS011;43467;50.890;5.982;2024-03-02T09:33:03;2.92;;;1.30;;
36233;SDS011;43467;50.890;5.982;2024-03-02T09:35:29;7.38;;;1.63;;
36233;SDS011;43467;50.890;5.982;2024-03-02T09:37:55;4.68;;;1.50;;
36233;SDS011;43467;50.890;5.982;2024-03-02T09:40:21;5.78;;;1.55;;
36233;SDS011;43467;50.890;5.982;2024-03-02T09:42:47;2.10;;;1.20;;
36233;SDS011;43467;50.890;5.982;2024-03-02T09:45:18;3.55;;;1.58;;
36233;SDS011;43467;50.890;5.982;2024-03-02T09:47:50;3.45;;;1.00;;
36233;SDS011;43467;50.890;5.982;2024-03-02T09:50:16;3.58;;;1.33;;
36233;SDS011;43467;50.890;5.982;2024-03-02T09:52:42;4.05;;;1.70;;
36233;SDS011;43467;50.890;5.982;2024-03-02T09:55:08;3.83;;;1.35;;
36233;SDS011;43467;50.890;5.982;2024-03-02T09:57:34;3.53;;;1.30;;
36233;SDS011;43467;50.890;5.982;2024-03-02T09:59:59;3.25;;;1.20;;
36233;SDS011;43467;50.890;5.982;2024-03-02T10:02:24;2.50;;;1.10;;
36233;SDS011;43467;50.890;5.982;2024-03-02T10:04:50;4.50;;;1.60;;
36233;SDS011;43467;50.890;5.982;2024-03-02T10:07:16;2.47;;;1.00;;
36233;SDS011;43467;50.890;5.982;2024-03-02T10:09:43;3.58;;;1.30;;
36233;SDS011;43467;50.890;5.982;2024-03-02T10:12:10;4.30;;;1.20;;
36233;SDS011;43467;50.890;5.982;2024-03-02T10:14:37;1.92;;;1.02;;
36233;SDS011;43467;50.890;5.982;2024-03-02T10:17:03;3.72;;;1.13;;
36233;SDS011;43467;50.890;5.982;2024-03-02T10:19:30;2.70;;;1.00;;
36233;SDS011;43467;50.890;5.982;2024-03-02T10:21:58;5.40;;;1.58;;
36233;SDS011;43467;50.890;5.982;2024-03-02T10:24:24;4.93;;;1.30;;
36233;SDS011;43467;50.890;5.982;2024-03-02T10:26:50;3.10;;;1.08;;
36233;SDS011;43467;50.890;5.982;2024-03-02T10:29:16;4.28;;;0.95;;
36233;SDS011;43467;50.890;5.982;2024-03-02T10:31:46;6.35;;;1.58;;
36233;SDS011;43467;50.890;5.982;2024-03-02T10:34:12;3.55;;;1.20;;
36233;SDS011;43467;50.890;5.982;2024-03-02T10:36:40;4.90;;;1.27;;
36233;SDS011;43467;50.890;5.982;2024-03-02T10:39:07;3.47;;;1.17;;
36233;SDS011;43467;50.890;5.982;2024-03-02T10:41:34;4.68;;;1.48;;
36233;SDS011;43467;50.890;5.982;2024-03-02T10:44:03;6.82;;;1.48;;
36233;SDS011;43467;50.890;5.982;2024-03-02T10:46:31;4.07;;;1.10;;
36233;SDS011;43467;50.890;5.982;2024-03-02T10:48:58;4.18;;;1.05;;
36233;SDS011;43467;50.890;5.982;2024-03-02T10:51:25;4.47;;;0.90;;
36233;SDS011;43467;50.890;5.982;2024-03-02T10:53:51;2.08;;;0.98;;
36233;SDS011;43467;50.890;5.982;2024-03-02T10:56:20;4.07;;;1.25;;
36233;SDS011;43467;50.890;5.982;2024-03-02T10:58:55;2.40;;;1.65;;
36233;SDS011;43467;50.890;5.982;2024-03-02T11:01:26;3.75;;;1.25;;
36233;SDS011;43467;50.890;5.982;2024-03-02T11:03:52;5.28;;;1.33;;
36233;SDS011;43467;50.890;5.982;2024-03-02T11:06:19;4.03;;;1.10;;
36233;SDS011;43467;50.890;5.982;2024-03-02T11:08:47;2.28;;;1.00;;
36233;SDS011;43467;50.890;5.982;2024-03-02T11:11:15;3.53;;;0.90;;
36233;SDS011;43467;50.890;5.982;2024-03-02T11:13:47;4.03;;;1.48;;
36233;SDS011;43467;50.890;5.982;2024-03-02T11:16:26;5.78;;;1.35;;
36233;SDS011;43467;50.890;5.982;2024-03-02T11:18:59;3.40;;;1.08;;
36233;SDS011;43467;50.890;5.982;2024-03-02T11:21:31;9.48;;;1.73;;
36233;SDS011;43467;50.890;5.982;2024-03-02T11:23:58;4.00;;;1.10;;
36233;SDS011;43467;50.890;5.982;2024-03-02T11:26:23;3.97;;;1.42;;
36233;SDS011;43467;50.890;5.982;2024-03-02T11:28:49;2.75;;;1.00;;
36233;SDS011;43467;50.890;5.982;2024-03-02T11:31:15;4.75;;;1.30;;
36233;SDS011;43467;50.890;5.982;2024-03-02T11:33:40;5.07;;;1.10;;
36233;SDS011;43467;50.890;5.982;2024-03-02T11:36:06;2.17;;;0.80;;
36233;SDS011;43467;50.890;5.982;2024-03-02T11:38:33;5.57;;;1.50;;
36233;SDS011;43467;50.890;5.982;2024-03-02T11:41:00;3.83;;;0.95;;
36233;SDS011;43467;50.890;5.982;2024-03-02T11:43:30;4.78;;;1.27;;
36233;SDS011;43467;50.890;5.982;2024-03-02T11:45:59;4.38;;;1.65;;
36233;SDS011;43467;50.890;5.982;2024-03-02T11:48:25;3.70;;;1.00;;
36233;SDS011;43467;50.890;5.982;2024-03-02T11:50:51;3.05;;;1.13;;
36233;SDS011;43467;50.890;5.982;2024-03-02T11:53:17;4.75;;;1.35;;
36233;SDS011;43467;50.890;5.982;2024-03-02T11:55:44;3.63;;;1.50;;
36233;SDS011;43467;50.890;5.982;2024-03-02T11:58:13;2.80;;;0.90;;
36233;SDS011;43467;50.890;5.982;2024-03-02T12:00:39;4.60;;;0.80;;
36233;SDS011;43467;50.890;5.982;2024-03-02T12:03:08;3.75;;;1.20;;
36233;SDS011;43467;50.890;5.982;2024-03-02T12:05:37;3.30;;;1.70;;
36233;SDS011;43467;50.890;5.982;2024-03-02T12:08:03;3.28;;;1.13;;
36233;SDS011;43467;50.890;5.982;2024-03-02T12:10:30;2.88;;;1.25;;
36233;SDS011;43467;50.890;5.982;2024-03-02T12:15:33;2.97;;;1.48;;
36233;SDS011;43467;50.890;5.982;2024-03-02T12:18:00;2.50;;;1.20;;
36233;SDS011;43467;50.890;5.982;2024-03-02T12:20:30;6.47;;;1.50;;
36233;SDS011;43467;50.890;5.982;2024-03-02T12:23:00;3.33;;;1.00;;
36233;SDS011;43467;50.890;5.982;2024-03-02T12:25:27;1.63;;;0.95;;
36233;SDS011;43467;50.890;5.982;2024-03-02T12:27:54;3.10;;;0.90;;
36233;SDS011;43467;50.890;5.982;2024-03-02T12:30:20;2.33;;;0.80;;
36233;SDS011;43467;50.890;5.982;2024-03-02T12:32:48;3.65;;;1.00;;
36233;SDS011;43467;50.890;5.982;2024-03-02T12:35:14;4.13;;;1.02;;
36233;SDS011;43467;50.890;5.982;2024-03-02T12:37:47;3.78;;;1.20;;
36233;SDS011;43467;50.890;5.982;2024-03-02T12:40:13;3.60;;;1.08;;
36233;SDS011;43467;50.890;5.982;2024-03-02T12:42:40;2.47;;;0.90;;
36233;SDS011;43467;50.890;5.982;2024-03-02T12:45:07;1.55;;;1.05;;
36233;SDS011;43467;50.890;5.982;2024-03-02T12:47:33;3.22;;;0.88;;
36233;SDS011;43467;50.890;5.982;2024-03-02T12:49:59;2.00;;;0.95;;
36233;SDS011;43467;50.890;5.982;2024-03-02T12:52:25;2.15;;;0.90;;
36233;SDS011;43467;50.890;5.982;2024-03-02T12:54:51;5.03;;;0.80;;
36233;SDS011;43467;50.890;5.982;2024-03-02T12:57:20;3.53;;;0.80;;
36233;SDS011;43467;50.890;5.982;2024-03-02T12:59:46;4.43;;;0.90;;
36233;SDS011;43467;50.890;5.982;2024-03-02T13:02:19;2.72;;;0.80;;
36233;SDS011;43467;50.890;5.982;2024-03-02T13:04:51;1.92;;;1.10;;
36233;SDS011;43467;50.890;5.982;2024-03-02T13:07:19;1.60;;;0.87;;
36233;SDS011;43467;50.890;5.982;2024-03-02T13:09:45;2.55;;;0.85;;
36233;SDS011;43467;50.890;5.982;2024-03-02T13:12:11;2.45;;;1.20;;
36233;SDS011;43467;50.890;5.982;2024-03-02T13:14:37;2.10;;;0.80;;
36233;SDS011;43467;50.890;5.982;2024-03-02T13:17:02;1.83;;;1.02;;
36233;SDS011;43467;50.890;5.982;2024-03-02T13:19:30;2.03;;;0.70;;
36233;SDS011;43467;50.890;5.982;2024-03-02T13:21:56;1.23;;;0.80;;
36233;SDS011;43467;50.890;5.982;2024-03-02T13:24:22;1.92;;;0.90;;
36233;SDS011;43467;50.890;5.982;2024-03-02T13:26:50;2.40;;;1.05;;
36233;SDS011;43467;50.890;5.982;2024-03-02T13:29:20;1.90;;;0.90;;
36233;SDS011;43467;50.890;5.982;2024-03-02T13:31:46;1.48;;;0.90;;
36233;SDS011;43467;50.890;5.982;2024-03-02T13:34:11;1.50;;;0.80;;
36233;SDS011;43467;50.890;5.982;2024-03-02T13:36:37;2.53;;;1.00;;
36233;SDS011;43467;50.890;5.982;2024-03-02T13:39:03;2.08;;;0.77;;
36233;SDS011;43467;50.890;5.982;2024-03-02T13:41:31;2.50;;;0.90;;
36233;SDS011;43467;50.890;5.982;2024-03-02T13:43:57;2.05;;;1.00;;
36233;SDS011;43467;50.890;5.982;2024-03-02T13:46:26;4.30;;;1.08;;
36233;SDS011;43467;50.890;5.982;2024-03-02T13:48:54;1.45;;;0.80;;
36233;SDS011;43467;50.890;5.982;2024-03-02T13:51:20;1.52;;;0.90;;
36233;SDS011;43467;50.890;5.982;2024-03-02T13:53:46;2.60;;;0.90;;
36233;SDS011;43467;50.890;5.982;2024-03-02T13:56:11;3.40;;;1.00;;
36233;SDS011;43467;50.890;5.982;2024-03-02T13:58:37;3.03;;;0.88;;
36233;SDS011;43467;50.890;5.982;2024-03-02T14:01:03;2.35;;;0.88;;
36233;SDS011;43467;50.890;5.982;2024-03-02T14:03:30;2.20;;;1.02;;
36233;SDS011;43467;50.890;5.982;2024-03-02T14:05:56;1.13;;;0.90;;
36233;SDS011;43467;50.890;5.982;2024-03-02T14:08:22;1.80;;;0.80;;
36233;SDS011;43467;50.890;5.982;2024-03-02T14:10:48;3.53;;;1.45;;
36233;SDS011;43467;50.890;5.982;2024-03-02T14:13:13;3.28;;;1.13;;
36233;SDS011;43467;50.890;5.982;2024-03-02T14:15:41;2.00;;;1.00;;
36233;SDS011;43467;50.890;5.982;2024-03-02T14:18:07;1.55;;;0.80;;
36233;SDS011;43467;50.890;5.982;2024-03-02T14:20:36;2.97;;;0.82;;
36233;SDS011;43467;50.890;5.982;2024-03-02T14:23:05;2.05;;;1.10;;
36233;SDS011;43467;50.890;5.982;2024-03-02T14:25:31;1.75;;;0.90;;
36233;SDS011;43467;50.890;5.982;2024-03-02T14:27:59;2.38;;;0.90;;
36233;SDS011;43467;50.890;5.982;2024-03-02T14:30:24;1.33;;;0.90;;
36233;SDS011;43467;50.890;5.982;2024-03-02T14:32:50;0.80;;;0.60;;
36233;SDS011;43467;50.890;5.982;2024-03-02T14:35:16;2.63;;;1.80;;
36233;SDS011;43467;50.890;5.982;2024-03-02T14:37:42;1.30;;;0.90;;
36233;SDS011;43467;50.890;5.982;2024-03-02T14:40:11;2.42;;;0.88;;
36233;SDS011;43467;50.890;5.982;2024-03-02T14:42:38;1.65;;;0.90;;
36233;SDS011;43467;50.890;5.982;2024-03-02T14:45:03;2.70;;;0.88;;
36233;SDS011;43467;50.890;5.982;2024-03-02T14:47:31;1.30;;;1.00;;
36233;SDS011;43467;50.890;5.982;2024-03-02T14:49:58;2.35;;;0.80;;
36233;SDS011;43467;50.890;5.982;2024-03-02T14:52:24;1.83;;;0.98;;
36233;SDS011;43467;50.890;5.982;2024-03-02T14:54:50;1.85;;;1.10;;
36233;SDS011;43467;50.890;5.982;2024-03-02T14:57:15;0.70;;;0.70;;
36233;SDS011;43467;50.890;5.982;2024-03-02T14:59:41;3.35;;;1.00;;